Albany, NY (12205)

12:08 AM EDT on October 31, 2014 (GMT -0400)
South Colonie - Cook Park Area | Change Station
CLOSE
Current Station
Personal Weather Station
Location: Colonie, NY
Elevation: 318 ft
Nearby Weather Stations

Elev 318 ft 42.71 °N, 73.84 °W | Updated 3 seconds ago

Partly Cloudy
Partly Cloudy
34.9 °F
Feels Like 35 °F
N
0.0
Wind Variable Wind from NW
Gusts 0.0 mph

Today
High -- | Low -- °F
--% Chance of Precip.
Yesterday
High -- | Low -- °F
Precip. -- in
7:27 AM 5:49 PM
Waxing Crescent, 51% visible
Pressure 30.05 in
Visibility 10.0 miles
Clouds Few 25000 ft
Windchill 35 °F
Dew Point 33 °F
Humidity 93%
Rainfall 0.00 in
Snow Depth Not available.
UV 0 out of 12
Pollen .60 out of 12
Air Quality Not available.
Flu Activity Not available.
METAR KALB 310351Z 18003KT 10SM FEW250 03/00 A3004 RMK AO2 SLP174 T00280000

More Conditions Fewer Conditions

Pressure 30.05 in
Visibility 10.0 miles
Clouds Few 25000 ft
Windchill 35 °F
Dew Point 33 °F
Humidity 93%
Rainfall 0.00 in
Snow Depth Not available.
UV 0 out of 12
Pollen .60 out of 12
Air Quality Not available.
Flu Activity Not available.
METAR KALB 310351Z 18003KT 10SM FEW250 03/00 A3004 RMK AO2 SLP174 T00280000

More Conditions Fewer Conditions

10-Day Weather Forecast

Almanac

Astronomy

Oct. 31, 2014 Rise Set
Actual Time
Civil Twilight
Nautical Twilight
Astronomical Twilight
Moon
Length of Visible Light
Length of Day
Tomorrow will be .
, % of the Moon is Illuminated

Today's Extremes

State Highs State Lows

Community

WunderPhotos

Upload Photos

1,766,563 photos uploaded!

WunderBlogs® & News

Nearby

Air Quality

  Air Quality AQ Index Pollutant
Not available.

Snow Depth

Station Depth Elevation

Earthquake Activity

City Distance Mag. Time & Date
Minimum magnitude displayed is 2.5.

Coastal Water Temperatures

Place Temperature

Nearby Weather Stations